createdAt,value
2022-12-25T00:00:29.768Z,10.20
2022-12-25T00:02:56.691Z,10.20
2022-12-25T00:05:23.471Z,10.20
2022-12-25T00:07:50.082Z,10.20
2022-12-25T00:10:16.773Z,10.20
2022-12-25T00:12:43.396Z,10.20
2022-12-25T00:15:10.163Z,10.20
2022-12-25T00:17:36.823Z,10.20
2022-12-25T00:20:03.596Z,10.10
2022-12-25T00:22:30.237Z,10.10
2022-12-25T00:24:56.850Z,10.10
2022-12-25T00:27:23.460Z,10.10
2022-12-25T00:29:50.120Z,10.10
2022-12-25T00:32:16.758Z,10.10
2022-12-25T00:34:43.380Z,10.10
2022-12-25T00:37:10.088Z,10.10
2022-12-25T00:39:36.760Z,10.10
2022-12-25T00:42:21.838Z,10.10
2022-12-25T00:44:48.775Z,10.10
2022-12-25T00:47:15.733Z,10.10
2022-12-25T00:49:42.490Z,10.10
2022-12-25T00:52:09.152Z,10.10
2022-12-25T00:54:36.003Z,10.00
2022-12-25T00:57:03.570Z,10.10
2022-12-25T00:59:33.779Z,10.00
2022-12-25T01:02:18.954Z,10.00
2022-12-25T01:04:45.691Z,10.00
2022-12-25T01:07:12.383Z,10.00
2022-12-25T01:09:57.838Z,10.00
2022-12-25T01:12:24.455Z,10.00
2022-12-25T01:14:51.076Z,10.00
2022-12-25T01:17:17.735Z,9.90
2022-12-25T01:19:44.465Z,10.00
2022-12-25T01:22:11.099Z,9.90
2022-12-25T01:24:37.728Z,9.90
2022-12-25T01:27:04.377Z,9.90
2022-12-25T01:29:31.019Z,9.90
2022-12-25T01:31:57.691Z,9.80
2022-12-25T01:34:24.335Z,9.80
2022-12-25T01:36:50.938Z,9.70
2022-12-25T01:39:17.587Z,9.70
2022-12-25T01:41:44.211Z,9.70
2022-12-25T01:44:13.876Z,9.70
2022-12-25T01:46:40.506Z,9.70
2022-12-25T01:49:14.692Z,9.70
2022-12-25T01:51:48.372Z,9.70
2022-12-25T01:54:16.148Z,9.70
2022-12-25T01:56:42.817Z,9.70
2022-12-25T01:59:09.576Z,9.80
2022-12-25T02:01:36.393Z,9.80
2022-12-25T02:04:05.663Z,9.80
2022-12-25T02:06:33.487Z,9.80
2022-12-25T02:09:00.190Z,9.90
2022-12-25T02:11:59.298Z,9.90
2022-12-25T02:14:27.535Z,9.90
2022-12-25T02:17:01.076Z,9.90
2022-12-25T02:19:32.377Z,9.90
2022-12-25T02:21:59.026Z,10.00
2022-12-25T02:24:34.965Z,10.00
2022-12-25T02:27:21.882Z,10.00
2022-12-25T02:29:57.045Z,10.00
2022-12-25T02:32:32.823Z,10.00
2022-12-25T02:35:06.220Z,10.00
2022-12-25T02:37:59.181Z,10.00
2022-12-25T02:40:30.685Z,9.90
2022-12-25T02:43:20.341Z,9.90
2022-12-25T02:46:10.674Z,9.90
2022-12-25T02:48:57.296Z,9.90
2022-12-25T02:51:43.232Z,9.90
2022-12-25T02:54:46.266Z,9.90
2022-12-25T02:57:31.399Z,9.90
2022-12-25T03:00:16.712Z,9.90
2022-12-25T03:03:01.951Z,9.90
2022-12-25T03:05:47.033Z,9.90
2022-12-25T03:08:14.689Z,9.90
2022-12-25T03:11:00.488Z,9.90
2022-12-25T03:13:28.462Z,9.90
2022-12-25T03:16:13.908Z,9.90
2022-12-25T03:18:40.620Z,9.90
2022-12-25T03:21:25.811Z,9.80
2022-12-25T03:24:11.459Z,9.80
2022-12-25T03:26:56.522Z,9.80
2022-12-25T03:29:46.356Z,9.80
2022-12-25T03:32:29.364Z,9.80
2022-12-25T03:35:16.903Z,9.80
2022-12-25T03:37:43.513Z,9.80
2022-12-25T03:40:28.975Z,9.80
2022-12-25T03:43:16.325Z,9.80
2022-12-25T03:46:02.521Z,9.80
2022-12-25T03:48:52.088Z,9.80
2022-12-25T03:51:38.230Z,9.90
2022-12-25T03:54:24.285Z,9.80
2022-12-25T03:57:09.704Z,9.80
2022-12-25T03:59:54.633Z,9.80
2022-12-25T04:02:39.910Z,9.80
2022-12-25T04:05:25.577Z,9.80
2022-12-25T04:08:10.863Z,9.80
2022-12-25T04:10:56.058Z,9.80
2022-12-25T04:13:41.485Z,9.70
2022-12-25T04:16:26.716Z,9.60
2022-12-25T04:19:11.837Z,9.50
2022-12-25T04:21:57.275Z,9.40
2022-12-25T04:24:42.662Z,9.40
2022-12-25T04:27:28.192Z,9.30
2022-12-25T04:30:13.391Z,9.20
2022-12-25T04:32:58.448Z,9.20
2022-12-25T04:35:43.621Z,9.10
2022-12-25T04:38:10.235Z,9.10
2022-12-25T04:40:36.894Z,9.10
2022-12-25T04:43:03.597Z,9.00
2022-12-25T04:45:30.233Z,9.00
2022-12-25T04:47:59.075Z,9.00
2022-12-25T04:50:25.710Z,9.00
2022-12-25T04:52:52.358Z,9.00
2022-12-25T04:55:19.013Z,8.90
2022-12-25T04:57:45.664Z,8.90
2022-12-25T05:00:12.523Z,9.00
2022-12-25T05:02:39.327Z,9.00
2022-12-25T05:05:06.311Z,9.00
2022-12-25T05:07:33.118Z,9.00
2022-12-25T05:09:59.731Z,9.00
2022-12-25T05:12:26.349Z,8.90
2022-12-25T05:14:53.021Z,8.90
2022-12-25T05:17:19.626Z,8.90
2022-12-25T05:19:46.232Z,8.90
2022-12-25T05:22:12.875Z,8.90
2022-12-25T05:24:39.543Z,8.90
2022-12-25T05:27:06.225Z,8.90
2022-12-25T05:29:32.853Z,8.90
2022-12-25T05:31:59.502Z,8.90
2022-12-25T05:34:26.144Z,8.90
2022-12-25T05:36:52.853Z,8.90
2022-12-25T05:39:19.747Z,8.90
2022-12-25T05:41:46.377Z,8.80
2022-12-25T05:44:13.113Z,8.80
2022-12-25T05:46:40.065Z,8.80
2022-12-25T05:49:06.809Z,8.70
2022-12-25T05:51:33.542Z,8.70
2022-12-25T05:54:00.227Z,8.70
2022-12-25T05:56:26.990Z,8.60
2022-12-25T05:58:53.706Z,8.60
2022-12-25T06:01:21.221Z,8.50
2022-12-25T06:03:47.973Z,8.50
2022-12-25T06:06:14.722Z,8.40
2022-12-25T06:08:41.382Z,8.50
2022-12-25T06:11:08.352Z,8.40
2022-12-25T06:13:35.118Z,8.40
2022-12-25T06:16:05.776Z,8.40
2022-12-25T06:18:34.796Z,8.40
2022-12-25T06:21:01.444Z,8.40
2022-12-25T06:23:28.156Z,8.40
2022-12-25T06:25:54.791Z,8.40
2022-12-25T06:28:21.488Z,8.30
2022-12-25T06:30:48.243Z,8.30
2022-12-25T06:33:14.933Z,8.30
2022-12-25T06:35:41.615Z,8.20
2022-12-25T06:38:08.270Z,8.20
2022-12-25T06:40:34.909Z,8.30
2022-12-25T06:43:01.610Z,8.20
2022-12-25T06:45:28.330Z,8.20
2022-12-25T06:47:55.068Z,8.20
2022-12-25T06:50:21.747Z,8.20
2022-12-25T06:52:48.373Z,8.20
2022-12-25T06:55:15.070Z,8.20
2022-12-25T06:57:41.728Z,8.10
2022-12-25T07:00:08.919Z,8.10
2022-12-25T07:02:36.233Z,8.20
2022-12-25T07:05:03.331Z,8.20
2022-12-25T07:07:30.009Z,8.20
2022-12-25T07:09:56.647Z,8.20
2022-12-25T07:12:23.651Z,8.20
2022-12-25T07:14:50.447Z,8.20
2022-12-25T07:17:17.310Z,8.20
2022-12-25T07:19:45.295Z,8.20
2022-12-25T07:22:12.687Z,8.30
2022-12-25T07:24:39.311Z,8.30
2022-12-25T07:27:06.225Z,8.40
2022-12-25T07:29:35.149Z,8.40
2022-12-25T07:32:02.856Z,8.40
2022-12-25T07:34:30.444Z,8.40
2022-12-25T07:36:57.515Z,8.50
2022-12-25T07:39:24.169Z,8.60
2022-12-25T07:41:51.355Z,8.60
2022-12-25T07:44:18.183Z,8.70
2022-12-25T07:46:45.009Z,8.80
2022-12-25T07:49:11.834Z,8.80
2022-12-25T07:51:38.548Z,8.90
2022-12-25T07:54:05.260Z,9.00
2022-12-25T07:56:31.928Z,9.00
2022-12-25T07:58:58.619Z,9.10
2022-12-25T08:01:28.477Z,9.10
2022-12-25T08:03:56.124Z,9.00
2022-12-25T08:06:23.284Z,9.00
2022-12-25T08:08:49.890Z,9.00
2022-12-25T08:11:16.776Z,9.00
2022-12-25T08:13:43.462Z,8.90
2022-12-25T08:16:10.300Z,8.90
2022-12-25T08:18:37.302Z,8.80
2022-12-25T08:21:04.547Z,8.80
2022-12-25T08:23:31.224Z,8.70
2022-12-25T08:26:05.187Z,8.70
2022-12-25T08:28:32.720Z,8.60
2022-12-25T08:30:59.377Z,8.60
2022-12-25T08:33:26.057Z,8.60
2022-12-25T08:35:52.724Z,8.60
2022-12-25T08:38:19.459Z,8.60
2022-12-25T08:40:46.088Z,8.60
2022-12-25T08:43:12.703Z,8.60
2022-12-25T08:45:39.317Z,8.60
2022-12-25T08:48:05.988Z,8.60
2022-12-25T08:50:32.697Z,8.70
2022-12-25T08:52:59.398Z,8.80
2022-12-25T08:55:26.098Z,8.90
2022-12-25T08:57:53.408Z,9.00
2022-12-25T09:00:20.246Z,9.10
2022-12-25T09:02:46.960Z,9.20
2022-12-25T09:05:13.713Z,9.30
2022-12-25T09:07:40.413Z,9.40
2022-12-25T09:10:07.471Z,9.40
2022-12-25T09:12:34.217Z,9.40
2022-12-25T09:15:00.888Z,9.40
2022-12-25T09:17:27.577Z,9.40
2022-12-25T09:19:54.229Z,9.40
2022-12-25T09:22:21.595Z,9.40
2022-12-25T09:24:48.242Z,9.50
2022-12-25T09:27:14.959Z,9.60
2022-12-25T09:29:41.644Z,9.80
2022-12-25T09:32:08.610Z,10.00
2022-12-25T09:34:35.291Z,10.10
2022-12-25T09:37:02.070Z,10.30
2022-12-25T09:39:28.751Z,10.40
2022-12-25T09:41:59.042Z,10.40
2022-12-25T09:44:40.941Z,10.40
2022-12-25T09:47:18.251Z,10.50
2022-12-25T09:49:50.792Z,10.50
2022-12-25T09:52:18.715Z,10.50
2022-12-25T09:54:48.383Z,10.40
2022-12-25T09:57:15.187Z,10.40
2022-12-25T09:59:42.548Z,10.40
2022-12-25T10:02:18.971Z,10.40
2022-12-25T10:04:45.825Z,10.40
2022-12-25T10:07:16.760Z,10.40
2022-12-25T10:10:02.121Z,10.50
2022-12-25T10:12:57.845Z,10.60
2022-12-25T10:15:36.708Z,10.60
2022-12-25T10:18:15.040Z,10.60
2022-12-25T10:20:43.372Z,10.70
2022-12-25T10:23:12.319Z,10.70
2022-12-25T10:25:39.390Z,10.70
2022-12-25T10:28:11.005Z,10.70
2022-12-25T10:30:37.629Z,10.70
2022-12-25T10:33:04.327Z,10.70
2022-12-25T10:35:32.759Z,10.80
2022-12-25T10:38:03.044Z,10.70
2022-12-25T10:40:48.648Z,10.60
2022-12-25T10:43:23.329Z,10.60
2022-12-25T10:45:49.976Z,10.70
2022-12-25T10:48:23.303Z,10.80
2022-12-25T10:50:50.153Z,10.90
2022-12-25T10:53:28.121Z,11.00
2022-12-25T10:56:01.639Z,11.20
2022-12-25T10:58:28.624Z,11.30
2022-12-25T11:00:56.979Z,11.50
2022-12-25T11:03:24.722Z,11.60
2022-12-25T11:05:51.827Z,11.70
2022-12-25T11:08:20.001Z,11.80
2022-12-25T11:10:51.368Z,11.90
2022-12-25T11:13:19.293Z,12.10
2022-12-25T11:15:46.673Z,12.20
2022-12-25T11:18:23.649Z,12.20
2022-12-25T11:20:54.205Z,12.20
2022-12-25T11:23:21.570Z,12.10
2022-12-25T11:26:07.076Z,12.10
2022-12-25T11:28:34.646Z,12.10
2022-12-25T11:31:13.596Z,12.10
2022-12-25T11:33:56.995Z,12.10
2022-12-25T11:36:26.710Z,12.10
2022-12-25T11:38:53.383Z,12.10
2022-12-25T11:41:20.793Z,12.10
2022-12-25T11:43:49.567Z,12.10
2022-12-25T11:46:28.840Z,12.10
2022-12-25T11:49:02.386Z,12.00
2022-12-25T11:51:30.873Z,12.00
2022-12-25T11:54:01.940Z,12.00
2022-12-25T11:56:29.041Z,12.10
2022-12-25T11:58:57.246Z,12.10
2022-12-25T12:01:42.957Z,12.10
2022-12-25T12:04:24.380Z,12.10
2022-12-25T12:06:58.892Z,12.00
2022-12-25T12:09:35.899Z,12.00
2022-12-25T12:12:07.804Z,12.00
2022-12-25T12:14:40.287Z,12.00
2022-12-25T12:17:09.196Z,11.90
2022-12-25T12:19:36.010Z,11.90
2022-12-25T12:22:02.922Z,11.90
2022-12-25T12:24:30.797Z,11.80
2022-12-25T12:27:23.014Z,11.80
2022-12-25T12:29:50.361Z,11.80
2022-12-25T12:32:27.349Z,11.80
2022-12-25T12:34:55.047Z,11.80
2022-12-25T12:37:25.242Z,11.80
2022-12-25T12:39:55.301Z,11.80
2022-12-25T12:42:22.798Z,11.70
2022-12-25T12:44:49.477Z,11.70
2022-12-25T12:47:29.405Z,11.70
2022-12-25T12:49:59.917Z,11.60
2022-12-25T12:52:32.460Z,11.60
2022-12-25T12:54:59.208Z,11.50
2022-12-25T12:57:27.136Z,11.50
2022-12-25T12:59:53.815Z,11.50
2022-12-25T13:02:27.849Z,11.40
2022-12-25T13:05:03.649Z,11.40
2022-12-25T13:07:46.304Z,11.40
2022-12-25T13:10:12.996Z,11.30
2022-12-25T13:12:39.639Z,11.30
2022-12-25T13:15:11.540Z,11.30
2022-12-25T13:17:38.295Z,11.30
2022-12-25T13:20:05.407Z,11.20
2022-12-25T13:22:32.845Z,11.20
2022-12-25T13:25:00.670Z,11.20
2022-12-25T13:27:31.876Z,11.10
2022-12-25T13:29:59.074Z,11.10
2022-12-25T13:32:29.751Z,11.00
2022-12-25T13:34:56.588Z,11.00
2022-12-25T13:37:24.188Z,10.90
2022-12-25T13:39:57.949Z,10.90
2022-12-25T13:42:28.422Z,10.80
2022-12-25T13:44:55.829Z,10.80
2022-12-25T13:47:26.474Z,10.80
2022-12-25T13:49:54.336Z,10.70
2022-12-25T13:52:23.083Z,10.60
2022-12-25T13:54:59.777Z,10.60
2022-12-25T13:57:30.617Z,10.60
2022-12-25T13:59:57.230Z,10.60
2022-12-25T14:02:25.268Z,10.60
2022-12-25T14:04:51.928Z,10.50
2022-12-25T14:07:19.191Z,10.50
2022-12-25T14:09:47.367Z,10.40
2022-12-25T14:12:19.093Z,10.30
2022-12-25T14:14:46.181Z,10.20
2022-12-25T14:17:15.047Z,10.10
2022-12-25T14:19:42.350Z,10.10
2022-12-25T14:22:18.704Z,10.00
2022-12-25T14:24:47.237Z,9.90
2022-12-25T14:27:34.181Z,9.90
2022-12-25T14:30:01.077Z,9.80
2022-12-25T14:32:28.431Z,9.70
2022-12-25T14:34:59.419Z,9.60
2022-12-25T14:37:27.644Z,9.60
2022-12-25T14:39:58.498Z,9.50
2022-12-25T14:42:26.440Z,9.50
2022-12-25T14:45:03.720Z,9.40
2022-12-25T14:47:30.797Z,8.60
2022-12-25T14:49:58.202Z,9.30
2022-12-25T14:52:27.886Z,9.20
2022-12-25T14:54:56.714Z,9.10
2022-12-25T14:57:27.078Z,9.10
2022-12-25T15:00:05.319Z,9.00
2022-12-25T15:02:37.914Z,8.90
2022-12-25T15:05:04.841Z,8.90
2022-12-25T15:07:31.496Z,8.80
2022-12-25T15:10:27.245Z,8.70
2022-12-25T15:12:44.906Z,8.70
2022-12-25T15:15:14.461Z,8.60
2022-12-25T15:17:41.505Z,8.60
2022-12-25T15:20:10.038Z,8.50
2022-12-25T15:23:02.160Z,8.50
2022-12-25T15:25:26.965Z,8.40
2022-12-25T15:27:53.683Z,8.40
2022-12-25T15:30:20.427Z,8.40
2022-12-25T15:32:47.130Z,8.30
2022-12-25T15:35:15.041Z,8.30
2022-12-25T15:37:41.789Z,8.20
2022-12-25T15:40:10.747Z,8.20
2022-12-25T15:42:38.206Z,8.20
2022-12-25T15:45:06.502Z,8.20
2022-12-25T15:47:34.739Z,7.70
2022-12-25T15:50:01.916Z,8.20
2022-12-25T15:52:28.722Z,8.10
2022-12-25T15:54:55.519Z,8.10
2022-12-25T15:57:22.218Z,8.10
2022-12-25T15:59:48.854Z,8.10
2022-12-25T16:02:16.918Z,8.10
2022-12-25T16:04:43.828Z,8.10
2022-12-25T16:07:14.254Z,8.10
2022-12-25T16:09:40.928Z,8.10
2022-12-25T16:12:07.677Z,8.10
2022-12-25T16:14:34.457Z,8.10
2022-12-25T16:17:01.134Z,8.10
2022-12-25T16:19:27.996Z,8.00
2022-12-25T16:21:54.657Z,8.00
2022-12-25T16:24:22.301Z,8.00
2022-12-25T16:26:49.171Z,7.90
2022-12-25T16:29:15.896Z,7.90
2022-12-25T16:31:43.839Z,7.80
2022-12-25T16:34:10.695Z,7.80
2022-12-25T16:36:37.431Z,7.80
2022-12-25T16:39:05.598Z,7.70
2022-12-25T16:41:32.287Z,7.60
2022-12-25T16:43:59.064Z,7.60
2022-12-25T16:46:25.789Z,7.60
2022-12-25T16:48:52.610Z,7.60
2022-12-25T16:51:19.873Z,7.50
2022-12-25T16:53:46.587Z,7.50
2022-12-25T16:56:14.884Z,7.50
2022-12-25T16:58:41.946Z,7.50
2022-12-25T17:01:09.962Z,7.50
2022-12-25T17:03:36.831Z,7.50
2022-12-25T17:06:04.243Z,7.50
2022-12-25T17:08:31.355Z,7.40
2022-12-25T17:10:58.091Z,7.40
2022-12-25T17:13:24.709Z,7.40
2022-12-25T17:15:51.504Z,7.40
2022-12-25T17:18:21.826Z,7.40
2022-12-25T17:20:51.970Z,7.40
2022-12-25T17:23:19.018Z,7.40
2022-12-25T17:25:45.716Z,7.40
2022-12-25T17:28:12.569Z,7.40
2022-12-25T17:30:39.189Z,7.40
2022-12-25T17:33:06.074Z,7.40
2022-12-25T17:35:34.552Z,7.40
2022-12-25T17:38:01.180Z,7.40
2022-12-25T17:40:27.953Z,7.40
2022-12-25T17:42:54.622Z,7.40
2022-12-25T17:45:21.351Z,7.40
2022-12-25T17:47:48.383Z,7.40
2022-12-25T17:50:15.101Z,7.30
2022-12-25T17:52:41.963Z,7.30
2022-12-25T17:55:08.834Z,7.30
2022-12-25T17:57:35.451Z,7.30
2022-12-25T18:00:02.062Z,7.30
2022-12-25T18:02:30.021Z,7.20
2022-12-25T18:04:57.148Z,7.20
2022-12-25T18:07:23.799Z,7.20
2022-12-25T18:09:50.451Z,7.10
2022-12-25T18:12:17.087Z,7.10
2022-12-25T18:14:43.723Z,7.10
2022-12-25T18:17:10.389Z,7.10
2022-12-25T18:19:37.037Z,7.10
2022-12-25T18:22:03.657Z,7.10
2022-12-25T18:24:30.256Z,7.00
2022-12-25T18:26:56.906Z,7.00
2022-12-25T18:29:23.536Z,7.00
2022-12-25T18:31:50.325Z,7.00
2022-12-25T18:34:17.127Z,6.90
2022-12-25T18:36:44.714Z,6.90
2022-12-25T18:39:11.599Z,6.90
2022-12-25T18:41:58.762Z,6.90
2022-12-25T18:44:25.899Z,6.80
2022-12-25T18:46:52.628Z,6.80
2022-12-25T18:49:19.396Z,6.80
2022-12-25T18:51:46.242Z,6.70
2022-12-25T18:54:12.984Z,6.70
2022-12-25T18:56:50.679Z,6.60
2022-12-25T18:59:19.603Z,6.60
2022-12-25T19:01:46.486Z,6.50
2022-12-25T19:04:16.502Z,6.50
2022-12-25T19:06:43.239Z,6.50
2022-12-25T19:09:10.052Z,6.40
2022-12-25T19:11:40.430Z,6.40
2022-12-25T19:14:12.546Z,6.40
2022-12-25T19:16:39.306Z,6.40
2022-12-25T19:19:05.998Z,6.40
2022-12-25T19:21:32.640Z,6.30
2022-12-25T19:23:59.325Z,6.30
2022-12-25T19:26:25.938Z,6.20
2022-12-25T19:28:52.928Z,6.20
2022-12-25T19:31:19.712Z,6.00
2022-12-25T19:33:46.411Z,6.00
2022-12-25T19:36:14.314Z,5.90
2022-12-25T19:38:41.183Z,5.90
2022-12-25T19:41:08.442Z,5.80
2022-12-25T19:43:36.824Z,5.80
2022-12-25T19:46:05.355Z,5.70
2022-12-25T19:48:35.058Z,5.70
2022-12-25T19:51:01.954Z,5.70
2022-12-25T19:53:30.352Z,5.70
2022-12-25T19:56:00.790Z,5.60
2022-12-25T19:58:27.532Z,5.60
2022-12-25T20:01:01.286Z,5.60
2022-12-25T20:03:28.185Z,5.60
2022-12-25T20:06:03.801Z,5.60
2022-12-25T20:08:30.584Z,5.70
2022-12-25T20:10:57.294Z,5.70
2022-12-25T20:13:23.905Z,5.80
2022-12-25T20:15:50.953Z,5.70
2022-12-25T20:18:17.901Z,5.70
2022-12-25T20:20:44.674Z,5.70
2022-12-25T20:23:11.358Z,5.70
2022-12-25T20:25:41.593Z,5.80
2022-12-25T20:28:08.443Z,5.80
2022-12-25T20:30:37.781Z,5.80
2022-12-25T20:33:04.392Z,5.80
2022-12-25T20:35:31.017Z,5.80
2022-12-25T20:37:57.672Z,5.80
2022-12-25T20:40:24.690Z,5.80
2022-12-25T20:42:51.340Z,5.90
2022-12-25T20:45:18.026Z,5.90
2022-12-25T20:47:44.702Z,5.90
2022-12-25T20:50:11.366Z,6.00
2022-12-25T20:52:37.985Z,6.00
2022-12-25T20:55:06.200Z,6.00
2022-12-25T20:57:32.929Z,5.90
2022-12-25T20:59:59.680Z,5.90
2022-12-25T21:02:34.324Z,5.90
2022-12-25T21:05:02.347Z,5.80
2022-12-25T21:07:29.035Z,5.70
2022-12-25T21:09:55.849Z,5.70
2022-12-25T21:12:22.516Z,5.60
2022-12-25T21:14:49.392Z,5.60
2022-12-25T21:17:16.233Z,5.60
2022-12-25T21:19:43.007Z,5.50
2022-12-25T21:22:09.658Z,5.60
2022-12-25T21:24:36.373Z,5.50
2022-12-25T21:27:03.063Z,5.50
2022-12-25T21:29:29.710Z,5.50
2022-12-25T21:32:15.097Z,5.40
2022-12-25T21:34:41.708Z,5.40
2022-12-25T21:37:08.465Z,5.40
2022-12-25T21:39:35.157Z,5.40
2022-12-25T21:42:04.422Z,5.40
2022-12-25T21:44:31.169Z,5.40
2022-12-25T21:46:57.815Z,5.40
2022-12-25T21:49:43.240Z,5.30
2022-12-25T21:52:10.194Z,5.30
2022-12-25T21:54:36.931Z,5.30
2022-12-25T21:57:03.587Z,5.30
2022-12-25T21:59:30.245Z,5.20
2022-12-25T22:01:57.182Z,5.20
2022-12-25T22:04:23.996Z,5.10
2022-12-25T22:07:09.403Z,5.10
2022-12-25T22:09:36.158Z,5.00
2022-12-25T22:12:21.577Z,5.00
2022-12-25T22:14:54.723Z,4.90
2022-12-25T22:17:46.794Z,4.90
2022-12-25T22:20:14.593Z,4.90
2022-12-25T22:22:43.219Z,4.90
2022-12-25T22:25:10.849Z,4.90
2022-12-25T22:27:40.585Z,5.00
2022-12-25T22:30:08.839Z,5.00
2022-12-25T22:32:35.557Z,5.00
2022-12-25T22:35:02.366Z,5.00
2022-12-25T22:37:29.000Z,5.00
2022-12-25T22:39:55.672Z,5.10
2022-12-25T22:42:22.395Z,5.10
2022-12-25T22:44:49.222Z,5.20
2022-12-25T22:47:15.892Z,5.20
2022-12-25T22:49:42.530Z,5.30
2022-12-25T22:52:09.936Z,5.40
2022-12-25T22:54:36.664Z,5.40
2022-12-25T22:57:03.353Z,5.40
2022-12-25T22:59:30.138Z,5.30
2022-12-25T23:01:56.924Z,5.30
2022-12-25T23:04:24.068Z,5.20
2022-12-25T23:06:53.447Z,5.30
2022-12-25T23:09:24.341Z,5.30
2022-12-25T23:11:51.593Z,5.30
2022-12-25T23:14:37.112Z,5.30
2022-12-25T23:17:03.801Z,5.30
2022-12-25T23:19:49.311Z,5.30
2022-12-25T23:22:34.278Z,5.30
2022-12-25T23:25:19.402Z,5.30
2022-12-25T23:27:46.071Z,5.20
2022-12-25T23:30:13.617Z,5.10
2022-12-25T23:32:40.288Z,5.10
2022-12-25T23:35:07.365Z,5.10
2022-12-25T23:37:34.214Z,5.20
2022-12-25T23:40:00.955Z,5.20
2022-12-25T23:42:27.591Z,5.20
2022-12-25T23:44:54.389Z,5.10
2022-12-25T23:47:21.024Z,5.10
2022-12-25T23:49:47.632Z,5.10
2022-12-25T23:52:14.274Z,5.10
2022-12-25T23:54:41.095Z,5.10
2022-12-25T23:57:07.748Z,5.00
2022-12-25T23:59:34.430Z,5.00
